sensor_id;sensor_type;location;lat;lon;timestamp;temperature;humidity
45765;DHT22;31474;45.332;10.230;2023-02-28T00:00:11;6.60;96.50
45765;DHT22;31474;45.332;10.230;2023-02-28T00:02:37;6.60;96.40
45765;DHT22;31474;45.332;10.230;2023-02-28T00:05:04;6.60;96.60
45765;DHT22;31474;45.332;10.230;2023-02-28T00:07:31;6.60;96.60
45765;DHT22;31474;45.332;10.230;2023-02-28T00:09:57;6.60;96.60
45765;DHT22;31474;45.332;10.230;2023-02-28T00:12:22;6.60;96.50
45765;DHT22;31474;45.332;10.230;2023-02-28T00:14:48;6.60;96.60
45765;DHT22;31474;45.332;10.230;2023-02-28T00:17:14;6.60;96.70
45765;DHT22;31474;45.332;10.230;2023-02-28T00:19:40;6.50;96.40
45765;DHT22;31474;45.332;10.230;2023-02-28T00:22:05;6.50;96.50
45765;DHT22;31474;45.332;10.230;2023-02-28T00:24:31;6.60;96.70
45765;DHT22;31474;45.332;10.230;2023-02-28T00:26:57;6.50;96.50
45765;DHT22;31474;45.332;10.230;2023-02-28T00:29:22;6.50;96.60
45765;DHT22;31474;45.332;10.230;2023-02-28T00:31:48;6.50;96.60
45765;DHT22;31474;45.332;10.230;2023-02-28T00:34:14;6.50;96.70
45765;DHT22;31474;45.332;10.230;2023-02-28T00:36:39;6.50;96.70
45765;DHT22;31474;45.332;10.230;2023-02-28T00:39:09;6.50;96.80
45765;DHT22;31474;45.332;10.230;2023-02-28T00:41:34;6.60;96.70
45765;DHT22;31474;45.332;10.230;2023-02-28T00:44:00;6.60;96.60
45765;DHT22;31474;45.332;10.230;2023-02-28T00:46:25;6.50;96.80
45765;DHT22;31474;45.332;10.230;2023-02-28T00:48:51;6.50;96.60
45765;DHT22;31474;45.332;10.230;2023-02-28T00:51:17;6.50;97.10
45765;DHT22;31474;45.332;10.230;2023-02-28T00:53:42;6.60;97.30
45765;DHT22;31474;45.332;10.230;2023-02-28T00:56:09;6.60;97.50
45765;DHT22;31474;45.332;10.230;2023-02-28T00:58:35;6.60;97.10
45765;DHT22;31474;45.332;10.230;2023-02-28T01:01:00;6.60;97.30
45765;DHT22;31474;45.332;10.230;2023-02-28T01:03:26;6.50;96.90
45765;DHT22;31474;45.332;10.230;2023-02-28T01:05:52;6.50;97.30
45765;DHT22;31474;45.332;10.230;2023-02-28T01:08:21;6.50;97.00
45765;DHT22;31474;45.332;10.230;2023-02-28T01:10:46;6.60;97.30
45765;DHT22;31474;45.332;10.230;2023-02-28T01:13:13;6.50;97.00
45765;DHT22;31474;45.332;10.230;2023-02-28T01:15:43;6.50;96.90
45765;DHT22;31474;45.332;10.230;2023-02-28T01:18:09;6.50;96.90
45765;DHT22;31474;45.332;10.230;2023-02-28T01:20:38;6.60;97.00
45765;DHT22;31474;45.332;10.230;2023-02-28T01:23:04;6.50;97.20
45765;DHT22;31474;45.332;10.230;2023-02-28T01:25:29;6.40;97.30
45765;DHT22;31474;45.332;10.230;2023-02-28T01:27:55;6.30;97.50
45765;DHT22;31474;45.332;10.230;2023-02-28T01:30:21;6.30;97.60
45765;DHT22;31474;45.332;10.230;2023-02-28T01:32:46;6.40;97.70
45765;DHT22;31474;45.332;10.230;2023-02-28T01:35:12;6.30;97.30
45765;DHT22;31474;45.332;10.230;2023-02-28T01:37:37;6.30;97.40
45765;DHT22;31474;45.332;10.230;2023-02-28T01:40:04;6.30;97.70
45765;DHT22;31474;45.332;10.230;2023-02-28T01:42:29;6.30;97.70
45765;DHT22;31474;45.332;10.230;2023-02-28T01:44:58;6.30;97.80
45765;DHT22;31474;45.332;10.230;2023-02-28T01:47:30;6.30;97.60
45765;DHT22;31474;45.332;10.230;2023-02-28T01:49:57;6.40;97.70
45765;DHT22;31474;45.332;10.230;2023-02-28T01:52:23;6.40;97.80
45765;DHT22;31474;45.332;10.230;2023-02-28T01:54:55;6.40;97.60
45765;DHT22;31474;45.332;10.230;2023-02-28T01:57:32;6.30;97.80
45765;DHT22;31474;45.332;10.230;2023-02-28T02:00:24;6.40;98.20
45765;DHT22;31474;45.332;10.230;2023-02-28T02:02:55;6.40;97.60
45765;DHT22;31474;45.332;10.230;2023-02-28T02:05:27;6.40;97.80
45765;DHT22;31474;45.332;10.230;2023-02-28T02:08:01;6.30;97.10
45765;DHT22;31474;45.332;10.230;2023-02-28T02:10:33;6.10;96.60
45765;DHT22;31474;45.332;10.230;2023-02-28T02:18:43;6.20;97.30
45765;DHT22;31474;45.332;10.230;2023-02-28T02:37:43;6.30;97.70
45765;DHT22;31474;45.332;10.230;2023-02-28T02:40:16;6.30;98.00
45765;DHT22;31474;45.332;10.230;2023-02-28T02:45:24;6.20;98.10
45765;DHT22;31474;45.332;10.230;2023-02-28T02:47:51;6.20;97.80
45765;DHT22;31474;45.332;10.230;2023-02-28T02:50:25;6.30;97.80
45765;DHT22;31474;45.332;10.230;2023-02-28T02:52:56;6.30;98.20
45765;DHT22;31474;45.332;10.230;2023-02-28T02:55:23;6.30;97.50
45765;DHT22;31474;45.332;10.230;2023-02-28T02:57:57;6.20;97.50
45765;DHT22;31474;45.332;10.230;2023-02-28T03:00:29;6.20;97.70
45765;DHT22;31474;45.332;10.230;2023-02-28T03:02:57;6.30;97.80
45765;DHT22;31474;45.332;10.230;2023-02-28T03:05:29;6.20;97.80
45765;DHT22;31474;45.332;10.230;2023-02-28T03:07:55;6.20;97.50
45765;DHT22;31474;45.332;10.230;2023-02-28T03:11:00;6.30;98.00
45765;DHT22;31474;45.332;10.230;2023-02-28T03:16:35;6.30;96.90
45765;DHT22;31474;45.332;10.230;2023-02-28T03:22:24;6.20;96.70
45765;DHT22;31474;45.332;10.230;2023-02-28T03:30:51;6.20;96.70
45765;DHT22;31474;45.332;10.230;2023-02-28T03:36:15;6.10;97.60
45765;DHT22;31474;45.332;10.230;2023-02-28T03:41:22;6.10;97.40
45765;DHT22;31474;45.332;10.230;2023-02-28T03:44:00;6.10;97.40
45765;DHT22;31474;45.332;10.230;2023-02-28T03:46:32;6.20;97.40
45765;DHT22;31474;45.332;10.230;2023-02-28T03:49:11;6.20;97.60
45765;DHT22;31474;45.332;10.230;2023-02-28T03:51:41;6.20;98.20
45765;DHT22;31474;45.332;10.230;2023-02-28T03:54:15;6.20;97.70
45765;DHT22;31474;45.332;10.230;2023-02-28T03:57:12;6.20;97.70
45765;DHT22;31474;45.332;10.230;2023-02-28T03:59:44;6.20;98.10
45765;DHT22;31474;45.332;10.230;2023-02-28T04:02:12;6.20;98.30
45765;DHT22;31474;45.332;10.230;2023-02-28T04:04:38;6.20;98.40
45765;DHT22;31474;45.332;10.230;2023-02-28T04:07:08;6.20;98.50
45765;DHT22;31474;45.332;10.230;2023-02-28T04:09:34;6.20;98.20
45765;DHT22;31474;45.332;10.230;2023-02-28T04:12:00;6.20;98.10
45765;DHT22;31474;45.332;10.230;2023-02-28T04:14:25;6.30;98.30
45765;DHT22;31474;45.332;10.230;2023-02-28T04:16:51;6.30;98.20
45765;DHT22;31474;45.332;10.230;2023-02-28T04:19:18;6.20;97.50
45765;DHT22;31474;45.332;10.230;2023-02-28T04:21:49;6.20;97.50
45765;DHT22;31474;45.332;10.230;2023-02-28T04:24:18;6.10;97.60
45765;DHT22;31474;45.332;10.230;2023-02-28T04:26:49;6.10;97.80
45765;DHT22;31474;45.332;10.230;2023-02-28T04:29:21;6.10;98.20
45765;DHT22;31474;45.332;10.230;2023-02-28T04:31:47;6.00;97.20
45765;DHT22;31474;45.332;10.230;2023-02-28T04:34:13;6.10;97.20
45765;DHT22;31474;45.332;10.230;2023-02-28T04:36:39;6.10;97.30
45765;DHT22;31474;45.332;10.230;2023-02-28T04:39:04;6.10;97.50
45765;DHT22;31474;45.332;10.230;2023-02-28T04:41:30;6.10;97.70
45765;DHT22;31474;45.332;10.230;2023-02-28T04:43:56;6.20;97.90
45765;DHT22;31474;45.332;10.230;2023-02-28T04:46:22;6.20;97.70
45765;DHT22;31474;45.332;10.230;2023-02-28T04:48:48;6.30;97.40
45765;DHT22;31474;45.332;10.230;2023-02-28T04:51:16;6.30;97.90
45765;DHT22;31474;45.332;10.230;2023-02-28T04:53:42;6.30;98.00
45765;DHT22;31474;45.332;10.230;2023-02-28T04:56:11;6.30;98.30
45765;DHT22;31474;45.332;10.230;2023-02-28T04:58:37;6.30;98.10
45765;DHT22;31474;45.332;10.230;2023-02-28T05:01:14;6.30;98.40
45765;DHT22;31474;45.332;10.230;2023-02-28T05:03:41;6.30;98.20
45765;DHT22;31474;45.332;10.230;2023-02-28T05:06:08;6.30;98.30
45765;DHT22;31474;45.332;10.230;2023-02-28T05:08:34;6.20;97.70
45765;DHT22;31474;45.332;10.230;2023-02-28T05:11:01;6.20;98.40
45765;DHT22;31474;45.332;10.230;2023-02-28T05:13:27;6.20;98.00
45765;DHT22;31474;45.332;10.230;2023-02-28T05:15:53;6.10;97.90
45765;DHT22;31474;45.332;10.230;2023-02-28T05:18:19;6.10;97.60
45765;DHT22;31474;45.332;10.230;2023-02-28T05:20:44;6.10;97.30
45765;DHT22;31474;45.332;10.230;2023-02-28T05:23:14;6.10;96.80
45765;DHT22;31474;45.332;10.230;2023-02-28T05:25:41;6.10;97.20
45765;DHT22;31474;45.332;10.230;2023-02-28T05:28:07;6.20;97.60
45765;DHT22;31474;45.332;10.230;2023-02-28T05:30:33;6.20;97.90
45765;DHT22;31474;45.332;10.230;2023-02-28T05:32:59;6.10;97.70
45765;DHT22;31474;45.332;10.230;2023-02-28T05:35:25;6.10;97.90
45765;DHT22;31474;45.332;10.230;2023-02-28T05:37:51;6.10;97.50
45765;DHT22;31474;45.332;10.230;2023-02-28T05:40:17;6.00;95.70
45765;DHT22;31474;45.332;10.230;2023-02-28T05:42:42;5.90;95.90
45765;DHT22;31474;45.332;10.230;2023-02-28T05:45:08;6.00;96.00
45765;DHT22;31474;45.332;10.230;2023-02-28T05:47:35;6.00;95.80
45765;DHT22;31474;45.332;10.230;2023-02-28T05:50:01;6.00;96.00
45765;DHT22;31474;45.332;10.230;2023-02-28T05:52:27;6.00;96.00
45765;DHT22;31474;45.332;10.230;2023-02-28T05:54:53;6.00;96.20
45765;DHT22;31474;45.332;10.230;2023-02-28T05:57:19;6.10;96.20
45765;DHT22;31474;45.332;10.230;2023-02-28T05:59:44;6.10;96.10
45765;DHT22;31474;45.332;10.230;2023-02-28T06:02:15;6.00;96.60
45765;DHT22;31474;45.332;10.230;2023-02-28T06:04:42;6.00;96.80
45765;DHT22;31474;45.332;10.230;2023-02-28T06:07:08;6.10;97.10
45765;DHT22;31474;45.332;10.230;2023-02-28T06:09:34;6.10;96.90
45765;DHT22;31474;45.332;10.230;2023-02-28T06:12:02;6.10;97.00
45765;DHT22;31474;45.332;10.230;2023-02-28T06:14:31;6.10;97.00
45765;DHT22;31474;45.332;10.230;2023-02-28T06:16:58;6.10;97.50
45765;DHT22;31474;45.332;10.230;2023-02-28T06:19:24;6.20;98.10
45765;DHT22;31474;45.332;10.230;2023-02-28T06:21:53;6.20;98.80
45765;DHT22;31474;45.332;10.230;2023-02-28T06:24:23;6.20;99.40
45765;DHT22;31474;45.332;10.230;2023-02-28T06:26:49;6.20;99.90
45765;DHT22;31474;45.332;10.230;2023-02-28T06:29:15;6.20;99.90
45765;DHT22;31474;45.332;10.230;2023-02-28T06:31:42;6.20;99.90
45765;DHT22;31474;45.332;10.230;2023-02-28T06:34:09;6.30;99.90
45765;DHT22;31474;45.332;10.230;2023-02-28T06:36:37;6.40;99.90
45765;DHT22;31474;45.332;10.230;2023-02-28T06:39:03;6.40;99.90
45765;DHT22;31474;45.332;10.230;2023-02-28T06:41:29;6.40;99.90
45765;DHT22;31474;45.332;10.230;2023-02-28T06:43:55;6.50;99.90
45765;DHT22;31474;45.332;10.230;2023-02-28T06:46:21;6.60;99.90
45765;DHT22;31474;45.332;10.230;2023-02-28T06:48:46;6.60;99.90
45765;DHT22;31474;45.332;10.230;2023-02-28T06:51:16;6.70;99.90
45765;DHT22;31474;45.332;10.230;2023-02-28T06:53:42;6.80;99.90
45765;DHT22;31474;45.332;10.230;2023-02-28T06:56:12;6.90;99.90
45765;DHT22;31474;45.332;10.230;2023-02-28T06:58:38;7.00;99.90
45765;DHT22;31474;45.332;10.230;2023-02-28T07:01:05;7.10;99.90
45765;DHT22;31474;45.332;10.230;2023-02-28T07:03:31;7.10;99.90
45765;DHT22;31474;45.332;10.230;2023-02-28T07:05:56;7.20;99.90
45765;DHT22;31474;45.332;10.230;2023-02-28T07:08:23;7.20;99.90
45765;DHT22;31474;45.332;10.230;2023-02-28T07:10:56;7.30;99.90
45765;DHT22;31474;45.332;10.230;2023-02-28T07:13:22;7.40;99.90
45765;DHT22;31474;45.332;10.230;2023-02-28T07:16:03;7.50;99.90
45765;DHT22;31474;45.332;10.230;2023-02-28T07:18:29;7.60;99.90
45765;DHT22;31474;45.332;10.230;2023-02-28T07:20:55;7.70;99.90
45765;DHT22;31474;45.332;10.230;2023-02-28T07:23:21;7.80;99.90
45765;DHT22;31474;45.332;10.230;2023-02-28T07:25:47;7.90;99.90
45765;DHT22;31474;45.332;10.230;2023-02-28T07:28:13;8.00;99.90
45765;DHT22;31474;45.332;10.230;2023-02-28T07:30:40;8.30;99.90
45765;DHT22;31474;45.332;10.230;2023-02-28T07:33:05;8.40;99.90
45765;DHT22;31474;45.332;10.230;2023-02-28T07:35:31;8.50;98.90
45765;DHT22;31474;45.332;10.230;2023-02-28T07:38:00;8.60;99.00
45765;DHT22;31474;45.332;10.230;2023-02-28T07:40:26;8.80;98.10
45765;DHT22;31474;45.332;10.230;2023-02-28T07:42:52;8.70;96.50
45765;DHT22;31474;45.332;10.230;2023-02-28T07:45:18;8.90;96.30
45765;DHT22;31474;45.332;10.230;2023-02-28T07:47:44;8.90;95.00
45765;DHT22;31474;45.332;10.230;2023-02-28T07:50:13;8.80;94.40
45765;DHT22;31474;45.332;10.230;2023-02-28T07:52:39;8.90;94.50
45765;DHT22;31474;45.332;10.230;2023-02-28T07:55:06;8.80;94.40
45765;DHT22;31474;45.332;10.230;2023-02-28T07:57:32;9.00;94.70
45765;DHT22;31474;45.332;10.230;2023-02-28T07:59:58;8.90;94.10
45765;DHT22;31474;45.332;10.230;2023-02-28T08:02:24;8.90;94.30
45765;DHT22;31474;45.332;10.230;2023-02-28T08:04:49;9.00;94.70
45765;DHT22;31474;45.332;10.230;2023-02-28T08:07:16;9.10;94.50
45765;DHT22;31474;45.332;10.230;2023-02-28T08:09:42;9.20;94.60
45765;DHT22;31474;45.332;10.230;2023-02-28T08:12:08;9.50;95.00
45765;DHT22;31474;45.332;10.230;2023-02-28T08:14:34;9.30;93.80
45765;DHT22;31474;45.332;10.230;2023-02-28T08:17:00;9.20;92.60
45765;DHT22;31474;45.332;10.230;2023-02-28T08:19:26;9.10;92.60
45765;DHT22;31474;45.332;10.230;2023-02-28T08:21:52;9.10;93.50
45765;DHT22;31474;45.332;10.230;2023-02-28T08:24:17;9.10;92.40
45765;DHT22;31474;45.332;10.230;2023-02-28T08:26:43;9.00;92.90
45765;DHT22;31474;45.332;10.230;2023-02-28T08:29:09;9.00;93.10
45765;DHT22;31474;45.332;10.230;2023-02-28T08:31:35;8.90;91.60
45765;DHT22;31474;45.332;10.230;2023-02-28T08:34:08;8.90;92.50
45765;DHT22;31474;45.332;10.230;2023-02-28T08:36:34;9.10;92.80
45765;DHT22;31474;45.332;10.230;2023-02-28T08:39:00;8.90;91.90
45765;DHT22;31474;45.332;10.230;2023-02-28T08:41:25;8.80;92.90
45765;DHT22;31474;45.332;10.230;2023-02-28T08:43:51;8.90;92.60
45765;DHT22;31474;45.332;10.230;2023-02-28T08:46:17;8.90;92.80
45765;DHT22;31474;45.332;10.230;2023-02-28T08:48:43;9.10;93.20
45765;DHT22;31474;45.332;10.230;2023-02-28T08:51:15;9.20;92.80
45765;DHT22;31474;45.332;10.230;2023-02-28T08:53:47;9.30;92.00
45765;DHT22;31474;45.332;10.230;2023-02-28T08:56:17;9.30;92.00
45765;DHT22;31474;45.332;10.230;2023-02-28T08:58:43;9.30;92.30
45765;DHT22;31474;45.332;10.230;2023-02-28T09:01:15;9.50;92.00
45765;DHT22;31474;45.332;10.230;2023-02-28T09:03:42;9.60;92.60
45765;DHT22;31474;45.332;10.230;2023-02-28T09:06:08;9.70;92.00
45765;DHT22;31474;45.332;10.230;2023-02-28T09:08:34;9.70;92.00
45765;DHT22;31474;45.332;10.230;2023-02-28T09:11:00;9.70;91.30
45765;DHT22;31474;45.332;10.230;2023-02-28T09:13:27;9.60;91.00
45765;DHT22;31474;45.332;10.230;2023-02-28T09:15:53;9.60;91.90
45765;DHT22;31474;45.332;10.230;2023-02-28T09:18:19;9.60;92.10
45765;DHT22;31474;45.332;10.230;2023-02-28T09:20:45;9.60;91.70
45765;DHT22;31474;45.332;10.230;2023-02-28T09:23:12;9.60;92.60
45765;DHT22;31474;45.332;10.230;2023-02-28T09:25:49;9.70;92.10
45765;DHT22;31474;45.332;10.230;2023-02-28T09:28:17;9.80;91.50
45765;DHT22;31474;45.332;10.230;2023-02-28T09:30:45;9.60;90.90
45765;DHT22;31474;45.332;10.230;2023-02-28T09:33:12;9.60;92.10
45765;DHT22;31474;45.332;10.230;2023-02-28T09:35:37;9.80;92.20
45765;DHT22;31474;45.332;10.230;2023-02-28T09:38:03;9.80;91.40
45765;DHT22;31474;45.332;10.230;2023-02-28T09:40:30;9.80;92.10
45765;DHT22;31474;45.332;10.230;2023-02-28T09:42:57;10.00;92.80
45765;DHT22;31474;45.332;10.230;2023-02-28T09:45:41;9.80;91.80
45765;DHT22;31474;45.332;10.230;2023-02-28T09:48:14;10.00;92.50
45765;DHT22;31474;45.332;10.230;2023-02-28T09:53:27;10.40;92.60
45765;DHT22;31474;45.332;10.230;2023-02-28T09:56:24;10.50;92.60
45765;DHT22;31474;45.332;10.230;2023-02-28T09:59:20;10.50;91.50
45765;DHT22;31474;45.332;10.230;2023-02-28T10:04:43;10.80;92.40
45765;DHT22;31474;45.332;10.230;2023-02-28T10:10:06;11.20;91.40
45765;DHT22;31474;45.332;10.230;2023-02-28T10:12:37;11.40;91.30
45765;DHT22;31474;45.332;10.230;2023-02-28T10:15:05;11.40;91.00
45765;DHT22;31474;45.332;10.230;2023-02-28T10:17:39;11.30;91.50
45765;DHT22;31474;45.332;10.230;2023-02-28T10:20:15;11.50;91.30
45765;DHT22;31474;45.332;10.230;2023-02-28T10:23:09;11.50;90.70
45765;DHT22;31474;45.332;10.230;2023-02-28T10:25:38;11.50;91.70
45765;DHT22;31474;45.332;10.230;2023-02-28T10:28:15;11.70;92.30
45765;DHT22;31474;45.332;10.230;2023-02-28T10:30:48;11.80;91.30
45765;DHT22;31474;45.332;10.230;2023-02-28T10:33:23;11.90;92.20
45765;DHT22;31474;45.332;10.230;2023-02-28T10:35:50;11.90;92.60
45765;DHT22;31474;45.332;10.230;2023-02-28T10:38:26;11.90;92.40
45765;DHT22;31474;45.332;10.230;2023-02-28T10:41:13;11.90;92.00
45765;DHT22;31474;45.332;10.230;2023-02-28T10:43:42;12.00;91.70
45765;DHT22;31474;45.332;10.230;2023-02-28T10:48:39;12.20;91.50
45765;DHT22;31474;45.332;10.230;2023-02-28T10:51:13;11.90;91.30
45765;DHT22;31474;45.332;10.230;2023-02-28T10:53:49;11.80;91.20
45765;DHT22;31474;45.332;10.230;2023-02-28T10:59:01;11.90;92.20
45765;DHT22;31474;45.332;10.230;2023-02-28T11:01:37;12.00;92.40
45765;DHT22;31474;45.332;10.230;2023-02-28T11:07:00;12.30;90.80
45765;DHT22;31474;45.332;10.230;2023-02-28T11:09:34;12.20;90.30
45765;DHT22;31474;45.332;10.230;2023-02-28T11:12:02;12.00;90.60
45765;DHT22;31474;45.332;10.230;2023-02-28T11:14:38;12.10;92.30
45765;DHT22;31474;45.332;10.230;2023-02-28T11:17:22;12.20;92.50
45765;DHT22;31474;45.332;10.230;2023-02-28T11:19:51;12.20;90.90
45765;DHT22;31474;45.332;10.230;2023-02-28T11:22:20;11.70;90.30
45765;DHT22;31474;45.332;10.230;2023-02-28T11:24:52;11.40;91.90
45765;DHT22;31474;45.332;10.230;2023-02-28T11:29:58;11.30;92.00
45765;DHT22;31474;45.332;10.230;2023-02-28T11:32:25;11.40;92.50
45765;DHT22;31474;45.332;10.230;2023-02-28T11:37:37;11.80;91.40
45765;DHT22;31474;45.332;10.230;2023-02-28T11:40:12;11.80;92.40
45765;DHT22;31474;45.332;10.230;2023-02-28T11:48:06;11.90;91.90
45765;DHT22;31474;45.332;10.230;2023-02-28T11:50:42;12.10;92.40
45765;DHT22;31474;45.332;10.230;2023-02-28T11:53:27;12.00;92.20
45765;DHT22;31474;45.332;10.230;2023-02-28T11:56:15;12.00;90.50
45765;DHT22;31474;45.332;10.230;2023-02-28T11:59:13;11.80;91.20
45765;DHT22;31474;45.332;10.230;2023-02-28T12:07:59;12.00;91.80
45765;DHT22;31474;45.332;10.230;2023-02-28T12:10:29;11.90;90.90
45765;DHT22;31474;45.332;10.230;2023-02-28T12:13:12;11.90;91.30
45765;DHT22;31474;45.332;10.230;2023-02-28T12:16:13;11.90;92.30
45765;DHT22;31474;45.332;10.230;2023-02-28T12:22:01;11.60;90.00
45765;DHT22;31474;45.332;10.230;2023-02-28T12:27:17;11.70;91.00
45765;DHT22;31474;45.332;10.230;2023-02-28T12:30:12;11.90;91.70
45765;DHT22;31474;45.332;10.230;2023-02-28T12:32:44;12.00;90.90
45765;DHT22;31474;45.332;10.230;2023-02-28T12:35:18;11.90;90.50
45765;DHT22;31474;45.332;10.230;2023-02-28T12:37:57;11.80;91.20
45765;DHT22;31474;45.332;10.230;2023-02-28T12:40:47;11.80;90.70
45765;DHT22;31474;45.332;10.230;2023-02-28T12:43:16;11.90;91.10
45765;DHT22;31474;45.332;10.230;2023-02-28T12:45:48;12.00;91.40
45765;DHT22;31474;45.332;10.230;2023-02-28T12:48:20;12.10;91.30
45765;DHT22;31474;45.332;10.230;2023-02-28T12:50:48;12.20;91.60
45765;DHT22;31474;45.332;10.230;2023-02-28T12:58:36;11.50;90.20
45765;DHT22;31474;45.332;10.230;2023-02-28T13:01:36;11.50;90.80
45765;DHT22;31474;45.332;10.230;2023-02-28T13:10:07;11.70;91.10
45765;DHT22;31474;45.332;10.230;2023-02-28T13:12:34;12.00;94.40
45765;DHT22;31474;45.332;10.230;2023-02-28T13:15:25;12.20;92.40
45765;DHT22;31474;45.332;10.230;2023-02-28T13:17:58;12.30;91.30
45765;DHT22;31474;45.332;10.230;2023-02-28T13:20:37;12.20;91.00
45765;DHT22;31474;45.332;10.230;2023-02-28T13:26:02;12.30;91.60
45765;DHT22;31474;45.332;10.230;2023-02-28T13:28:58;12.30;90.50
45765;DHT22;31474;45.332;10.230;2023-02-28T13:31:24;12.20;91.70
45765;DHT22;31474;45.332;10.230;2023-02-28T13:38:49;12.20;91.50
45765;DHT22;31474;45.332;10.230;2023-02-28T13:44:10;12.10;90.30
45765;DHT22;31474;45.332;10.230;2023-02-28T13:57:42;11.80;90.30
45765;DHT22;31474;45.332;10.230;2023-02-28T14:11:39;11.80;90.70
45765;DHT22;31474;45.332;10.230;2023-02-28T14:14:07;11.80;90.50
45765;DHT22;31474;45.332;10.230;2023-02-28T14:16:47;11.80;90.80
45765;DHT22;31474;45.332;10.230;2023-02-28T14:27:47;11.90;91.60
45765;DHT22;31474;45.332;10.230;2023-02-28T14:33:27;11.90;90.90
45765;DHT22;31474;45.332;10.230;2023-02-28T14:36:10;11.80;91.40
45765;DHT22;31474;45.332;10.230;2023-02-28T14:41:46;11.80;90.80
45765;DHT22;31474;45.332;10.230;2023-02-28T14:46:48;11.70;90.70
45765;DHT22;31474;45.332;10.230;2023-02-28T14:49:25;11.70;91.40
45765;DHT22;31474;45.332;10.230;2023-02-28T14:52:20;11.70;90.90
45765;DHT22;31474;45.332;10.230;2023-02-28T14:54:48;11.70;90.70
45765;DHT22;31474;45.332;10.230;2023-02-28T14:57:31;11.80;91.80
45765;DHT22;31474;45.332;10.230;2023-02-28T15:00:17;11.80;92.40
45765;DHT22;31474;45.332;10.230;2023-02-28T15:02:45;11.80;91.90
45765;DHT22;31474;45.332;10.230;2023-02-28T15:07:47;11.80;91.70
45765;DHT22;31474;45.332;10.230;2023-02-28T15:13:01;11.60;92.30
45765;DHT22;31474;45.332;10.230;2023-02-28T15:15:46;11.60;93.00
45765;DHT22;31474;45.332;10.230;2023-02-28T15:18:49;11.60;92.50
45765;DHT22;31474;45.332;10.230;2023-02-28T15:21:18;11.70;92.50
45765;DHT22;31474;45.332;10.230;2023-02-28T15:23:59;11.60;93.10
45765;DHT22;31474;45.332;10.230;2023-02-28T15:26:46;11.60;92.40
45765;DHT22;31474;45.332;10.230;2023-02-28T15:29:16;11.50;92.70
45765;DHT22;31474;45.332;10.230;2023-02-28T15:32:06;11.50;92.90
45765;DHT22;31474;45.332;10.230;2023-02-28T15:34:39;11.50;91.40
45765;DHT22;31474;45.332;10.230;2023-02-28T15:42:35;11.40;91.30
45765;DHT22;31474;45.332;10.230;2023-02-28T15:45:01;11.30;91.80
45765;DHT22;31474;45.332;10.230;2023-02-28T15:47:29;11.30;91.50
45765;DHT22;31474;45.332;10.230;2023-02-28T15:50:08;11.20;90.90
45765;DHT22;31474;45.332;10.230;2023-02-28T15:52:43;11.10;92.00
45765;DHT22;31474;45.332;10.230;2023-02-28T15:55:18;11.00;92.90
45765;DHT22;31474;45.332;10.230;2023-02-28T15:57:47;11.00;93.10
45765;DHT22;31474;45.332;10.230;2023-02-28T16:00:15;11.10;93.20
45765;DHT22;31474;45.332;10.230;2023-02-28T16:02:41;11.00;93.60
45765;DHT22;31474;45.332;10.230;2023-02-28T16:07:37;11.00;93.80
45765;DHT22;31474;45.332;10.230;2023-02-28T16:10:05;11.00;93.90
45765;DHT22;31474;45.332;10.230;2023-02-28T16:12:33;11.00;93.70
45765;DHT22;31474;45.332;10.230;2023-02-28T16:15:02;10.90;93.50
45765;DHT22;31474;45.332;10.230;2023-02-28T16:17:38;10.80;93.80
45765;DHT22;31474;45.332;10.230;2023-02-28T16:20:15;10.80;94.30
45765;DHT22;31474;45.332;10.230;2023-02-28T16:22:42;10.80;93.70
45765;DHT22;31474;45.332;10.230;2023-02-28T16:25:12;10.80;94.30
45765;DHT22;31474;45.332;10.230;2023-02-28T16:27:38;10.80;94.20
45765;DHT22;31474;45.332;10.230;2023-02-28T16:30:05;10.70;94.40
45765;DHT22;31474;45.332;10.230;2023-02-28T16:32:34;10.70;94.70
45765;DHT22;31474;45.332;10.230;2023-02-28T16:35:01;10.60;94.20
45765;DHT22;31474;45.332;10.230;2023-02-28T16:37:27;10.60;94.40
45765;DHT22;31474;45.332;10.230;2023-02-28T16:39:53;10.50;94.40
45765;DHT22;31474;45.332;10.230;2023-02-28T16:42:27;10.50;94.50
45765;DHT22;31474;45.332;10.230;2023-02-28T16:44:54;10.50;95.30
45765;DHT22;31474;45.332;10.230;2023-02-28T16:47:21;10.40;94.70
45765;DHT22;31474;45.332;10.230;2023-02-28T16:49:46;10.40;95.20
45765;DHT22;31474;45.332;10.230;2023-02-28T16:52:13;10.40;95.30
45765;DHT22;31474;45.332;10.230;2023-02-28T16:54:40;10.30;95.30
45765;DHT22;31474;45.332;10.230;2023-02-28T16:57:08;10.30;95.10
45765;DHT22;31474;45.332;10.230;2023-02-28T16:59:40;10.30;95.50
45765;DHT22;31474;45.332;10.230;2023-02-28T17:02:14;10.20;95.60
45765;DHT22;31474;45.332;10.230;2023-02-28T17:04:40;10.20;95.30
45765;DHT22;31474;45.332;10.230;2023-02-28T17:07:11;10.10;95.40
45765;DHT22;31474;45.332;10.230;2023-02-28T17:09:38;10.10;95.50
45765;DHT22;31474;45.332;10.230;2023-02-28T17:12:03;10.00;95.50
45765;DHT22;31474;45.332;10.230;2023-02-28T17:14:29;9.90;95.50
45765;DHT22;31474;45.332;10.230;2023-02-28T17:16:55;9.90;95.40
45765;DHT22;31474;45.332;10.230;2023-02-28T17:19:21;9.80;95.50
45765;DHT22;31474;45.332;10.230;2023-02-28T17:21:46;9.80;96.10
45765;DHT22;31474;45.332;10.230;2023-02-28T17:24:12;9.70;95.70
45765;DHT22;31474;45.332;10.230;2023-02-28T17:26:39;9.70;95.90
45765;DHT22;31474;45.332;10.230;2023-02-28T17:29:17;9.70;96.20
45765;DHT22;31474;45.332;10.230;2023-02-28T17:31:43;9.70;95.90
45765;DHT22;31474;45.332;10.230;2023-02-28T17:34:09;9.60;96.20
45765;DHT22;31474;45.332;10.230;2023-02-28T17:36:35;9.60;95.80
45765;DHT22;31474;45.332;10.230;2023-02-28T17:39:03;9.50;95.80
45765;DHT22;31474;45.332;10.230;2023-02-28T17:41:29;9.40;95.80
45765;DHT22;31474;45.332;10.230;2023-02-28T17:43:56;9.40;96.50
45765;DHT22;31474;45.332;10.230;2023-02-28T17:46:24;9.40;96.40
45765;DHT22;31474;45.332;10.230;2023-02-28T17:48:51;9.40;96.20
45765;DHT22;31474;45.332;10.230;2023-02-28T17:51:20;9.30;96.00
45765;DHT22;31474;45.332;10.230;2023-02-28T17:53:45;9.30;96.00
45765;DHT22;31474;45.332;10.230;2023-02-28T17:56:17;9.20;95.90
45765;DHT22;31474;45.332;10.230;2023-02-28T17:58:43;9.20;96.00
45765;DHT22;31474;45.332;10.230;2023-02-28T18:01:09;9.20;96.60
45765;DHT22;31474;45.332;10.230;2023-02-28T18:03:35;9.30;96.60
45765;DHT22;31474;45.332;10.230;2023-02-28T18:06:02;9.30;96.30
45765;DHT22;31474;45.332;10.230;2023-02-28T18:08:28;9.20;96.00
45765;DHT22;31474;45.332;10.230;2023-02-28T18:10:54;9.20;96.10
45765;DHT22;31474;45.332;10.230;2023-02-28T18:13:20;9.10;96.20
45765;DHT22;31474;45.332;10.230;2023-02-28T18:15:45;9.10;96.60
45765;DHT22;31474;45.332;10.230;2023-02-28T18:18:12;9.20;96.80